sensor_id;sensor_type;location;lat;lon;timestamp;pressure;altitude;pressure_sealevel;temperature;humidity
23619;BME280;18207;32.078;34.818;2024-01-27T00:00:56;100975.38;;;22.26;45.46
23619;BME280;18207;32.078;34.818;2024-01-27T00:03:26;100972.59;;;22.26;45.79
23619;BME280;18207;32.078;34.818;2024-01-27T00:05:56;100970.63;;;22.27;45.70
23619;BME280;18207;32.078;34.818;2024-01-27T00:08:28;100970.94;;;22.25;45.81
23619;BME280;18207;32.078;34.818;2024-01-27T00:10:57;100964.53;;;22.25;45.36
23619;BME280;18207;32.078;34.818;2024-01-27T00:13:27;100972.09;;;22.24;45.38
23619;BME280;18207;32.078;34.818;2024-01-27T00:15:57;100972.47;;;22.23;45.67
23619;BME280;18207;32.078;34.818;2024-01-27T00:18:27;100968.00;;;22.22;45.67
23619;BME280;18207;32.078;34.818;2024-01-27T00:20:57;100973.63;;;22.22;45.65
23619;BME280;18207;32.078;34.818;2024-01-27T00:23:28;100974.78;;;22.21;45.51
23619;BME280;18207;32.078;34.818;2024-01-27T00:26:01;100990.75;;;22.20;46.03
23619;BME280;18207;32.078;34.818;2024-01-27T00:28:31;100978.25;;;22.18;45.62
23619;BME280;18207;32.078;34.818;2024-01-27T00:31:01;100979.09;;;22.18;45.91
23619;BME280;18207;32.078;34.818;2024-01-27T00:33:31;100984.69;;;22.18;46.09
23619;BME280;18207;32.078;34.818;2024-01-27T00:36:01;100976.28;;;22.18;45.91
23619;BME280;18207;32.078;34.818;2024-01-27T00:38:33;100960.66;;;22.17;45.41
23619;BME280;18207;32.078;34.818;2024-01-27T00:41:02;100957.84;;;22.17;45.55
23619;BME280;18207;32.078;34.818;2024-01-27T00:43:32;100950.59;;;22.16;45.96
23619;BME280;18207;32.078;34.818;2024-01-27T00:46:02;100947.00;;;22.16;45.46
23619;BME280;18207;32.078;34.818;2024-01-27T00:48:32;100952.91;;;22.14;45.66
23619;BME280;18207;32.078;34.818;2024-01-27T00:51:02;100947.66;;;22.13;45.74
23619;BME280;18207;32.078;34.818;2024-01-27T00:53:33;100954.44;;;22.12;45.45
23619;BME280;18207;32.078;34.818;2024-01-27T00:56:04;100948.03;;;22.11;45.75
23619;BME280;18207;32.078;34.818;2024-01-27T00:58:34;100956.41;;;22.11;45.93
23619;BME280;18207;32.078;34.818;2024-01-27T01:01:04;100959.22;;;22.11;45.90
23619;BME280;18207;32.078;34.818;2024-01-27T01:03:34;100970.75;;;22.10;46.11
23619;BME280;18207;32.078;34.818;2024-01-27T01:06:04;100985.56;;;22.10;45.89
23619;BME280;18207;32.078;34.818;2024-01-27T01:08:36;101010.28;;;22.08;45.52
23619;BME280;18207;32.078;34.818;2024-01-27T01:11:06;101005.03;;;22.07;45.89
23619;BME280;18207;32.078;34.818;2024-01-27T01:13:35;100998.09;;;22.04;45.66
23619;BME280;18207;32.078;34.818;2024-01-27T01:16:07;100991.69;;;22.04;45.63
23619;BME280;18207;32.078;34.818;2024-01-27T01:18:37;100992.84;;;22.03;45.35
23619;BME280;18207;32.078;34.818;2024-01-27T01:21:07;100980.84;;;22.02;45.54
23619;BME280;18207;32.078;34.818;2024-01-27T01:23:38;100990.88;;;22.03;45.46
23619;BME280;18207;32.078;34.818;2024-01-27T01:26:08;100983.66;;;22.02;45.59
23619;BME280;18207;32.078;34.818;2024-01-27T01:28:40;100964.06;;;22.02;45.40
23619;BME280;18207;32.078;34.818;2024-01-27T01:31:11;100957.97;;;22.00;45.33
23619;BME280;18207;32.078;34.818;2024-01-27T01:33:41;100957.16;;;22.00;45.70
23619;BME280;18207;32.078;34.818;2024-01-27T01:36:11;100951.53;;;22.00;45.49
23619;BME280;18207;32.078;34.818;2024-01-27T01:38:42;100943.84;;;21.97;45.46
23619;BME280;18207;32.078;34.818;2024-01-27T01:41:13;100940.56;;;21.95;45.59
23619;BME280;18207;32.078;34.818;2024-01-27T01:43:42;100926.44;;;21.91;45.56
23619;BME280;18207;32.078;34.818;2024-01-27T01:46:12;100922.81;;;21.91;45.60
23619;BME280;18207;32.078;34.818;2024-01-27T01:48:42;100927.91;;;21.89;45.28
23619;BME280;18207;32.078;34.818;2024-01-27T01:51:13;100932.22;;;21.86;45.68
23619;BME280;18207;32.078;34.818;2024-01-27T01:53:48;100928.63;;;21.86;45.65
23619;BME280;18207;32.078;34.818;2024-01-27T01:56:17;100928.94;;;21.84;45.14
23619;BME280;18207;32.078;34.818;2024-01-27T01:58:47;100926.16;;;21.84;45.35
23619;BME280;18207;32.078;34.818;2024-01-27T02:01:18;100939.69;;;21.82;45.72
23619;BME280;18207;32.078;34.818;2024-01-27T02:03:53;100922.72;;;21.79;45.46
23619;BME280;18207;32.078;34.818;2024-01-27T02:06:23;100933.47;;;21.77;45.28
23619;BME280;18207;32.078;34.818;2024-01-27T02:09:09;100926.53;;;21.74;45.60
23619;BME280;18207;32.078;34.818;2024-01-27T02:11:39;100934.00;;;21.70;45.50
23619;BME280;18207;32.078;34.818;2024-01-27T02:14:09;100929.19;;;21.71;45.48
23619;BME280;18207;32.078;34.818;2024-01-27T02:16:38;100930.03;;;21.71;45.72
23619;BME280;18207;32.078;34.818;2024-01-27T02:19:08;100925.25;;;21.72;45.70
23619;BME280;18207;32.078;34.818;2024-01-27T02:21:38;100911.25;;;21.72;45.43
23619;BME280;18207;32.078;34.818;2024-01-27T02:24:10;100911.25;;;21.72;45.18
23619;BME280;18207;32.078;34.818;2024-01-27T02:26:39;100915.22;;;21.71;45.39
23619;BME280;18207;32.078;34.818;2024-01-27T02:29:09;100921.97;;;21.70;45.58
23619;BME280;18207;32.078;34.818;2024-01-27T02:31:39;100924.75;;;21.70;45.36
23619;BME280;18207;32.078;34.818;2024-01-27T02:34:08;100914.28;;;21.67;45.73
23619;BME280;18207;32.078;34.818;2024-01-27T02:36:38;100915.44;;;21.66;45.01
23619;BME280;18207;32.078;34.818;2024-01-27T02:39:10;100911.00;;;21.65;45.30
23619;BME280;18207;32.078;34.818;2024-01-27T02:41:40;100907.72;;;21.63;45.18
23619;BME280;18207;32.078;34.818;2024-01-27T02:44:09;100908.06;;;21.61;45.10
23619;BME280;18207;32.078;34.818;2024-01-27T02:46:39;100913.66;;;21.61;45.50
23619;BME280;18207;32.078;34.818;2024-01-27T02:49:10;100919.56;;;21.60;44.91
23619;BME280;18207;32.078;34.818;2024-01-27T02:51:40;100915.97;;;21.59;45.17
23619;BME280;18207;32.078;34.818;2024-01-27T02:54:12;100926.00;;;21.60;45.58
23619;BME280;18207;32.078;34.818;2024-01-27T02:56:42;100929.94;;;21.59;45.43
23619;BME280;18207;32.078;34.818;2024-01-27T02:59:12;100928.78;;;21.60;45.58
23619;BME280;18207;32.078;34.818;2024-01-27T03:01:42;100937.97;;;21.61;45.58
23619;BME280;18207;32.078;34.818;2024-01-27T03:04:12;100933.22;;;21.61;45.04
23619;BME280;18207;32.078;34.818;2024-01-27T03:06:41;100932.38;;;21.61;45.23
23619;BME280;18207;32.078;34.818;2024-01-27T03:09:14;100954.44;;;21.62;44.88
23619;BME280;18207;32.078;34.818;2024-01-27T03:11:44;100975.19;;;21.61;44.98
23619;BME280;18207;32.078;34.818;2024-01-27T03:14:13;100994.75;;;21.61;45.23
23619;BME280;18207;32.078;34.818;2024-01-27T03:16:44;101001.16;;;21.62;45.31
23619;BME280;18207;32.078;34.818;2024-01-27T03:19:13;100961.50;;;21.60;45.26
23619;BME280;18207;32.078;34.818;2024-01-27T03:21:43;100957.06;;;21.59;45.12
23619;BME280;18207;32.078;34.818;2024-01-27T03:24:15;100957.91;;;21.59;45.14
23619;BME280;18207;32.078;34.818;2024-01-27T03:26:45;100963.50;;;21.59;45.57
23619;BME280;18207;32.078;34.818;2024-01-27T03:29:14;100965.47;;;21.59;45.22
23619;BME280;18207;32.078;34.818;2024-01-27T03:31:44;100962.66;;;21.59;45.20
23619;BME280;18207;32.078;34.818;2024-01-27T03:34:13;100960.22;;;21.57;45.12
23619;BME280;18207;32.078;34.818;2024-01-27T03:36:44;100962.53;;;21.55;45.40
23619;BME280;18207;32.078;34.818;2024-01-27T03:39:18;100972.56;;;21.56;45.00
23619;BME280;18207;32.078;34.818;2024-01-27T03:41:48;100988.53;;;21.56;45.38
23619;BME280;18207;32.078;34.818;2024-01-27T03:44:18;100998.56;;;21.57;45.20
23619;BME280;18207;32.078;34.818;2024-01-27T03:46:47;100995.78;;;21.57;45.51
23619;BME280;18207;32.078;34.818;2024-01-27T03:49:19;101012.88;;;21.55;45.57
23619;BME280;18207;32.078;34.818;2024-01-27T03:51:49;101017.63;;;21.55;45.43
23619;BME280;18207;32.078;34.818;2024-01-27T03:54:20;101000.34;;;21.53;45.21
23619;BME280;18207;32.078;34.818;2024-01-27T03:56:50;100982.28;;;21.51;45.50
23619;BME280;18207;32.078;34.818;2024-01-27T03:59:21;100980.13;;;21.48;44.82
23619;BME280;18207;32.078;34.818;2024-01-27T04:01:51;100991.66;;;21.46;45.13
23619;BME280;18207;32.078;34.818;2024-01-27T04:04:20;100990.84;;;21.46;45.38
23619;BME280;18207;32.078;34.818;2024-01-27T04:06:49;100988.03;;;21.46;44.94
23619;BME280;18207;32.078;34.818;2024-01-27T04:09:21;100990.38;;;21.44;45.19
23619;BME280;18207;32.078;34.818;2024-01-27T04:11:52;100991.84;;;21.41;45.33
23619;BME280;18207;32.078;34.818;2024-01-27T04:14:22;100987.41;;;21.40;45.29
23619;BME280;18207;32.078;34.818;2024-01-27T04:16:51;100996.13;;;21.39;45.45
23619;BME280;18207;32.078;34.818;2024-01-27T04:19:21;101004.53;;;21.39;45.14
23619;BME280;18207;32.078;34.818;2024-01-27T04:21:51;100990.53;;;21.39;45.82
23619;BME280;18207;32.078;34.818;2024-01-27T04:24:22;100999.72;;;21.39;45.39
23619;BME280;18207;32.078;34.818;2024-01-27T04:26:52;100995.31;;;21.38;45.48
23619;BME280;18207;32.078;34.818;2024-01-27T04:29:22;101008.97;;;21.40;45.81
23619;BME280;18207;32.078;34.818;2024-01-27T04:31:51;101014.56;;;21.40;45.54
23619;BME280;18207;32.078;34.818;2024-01-27T04:34:21;101022.94;;;21.40;45.63
23619;BME280;18207;32.078;34.818;2024-01-27T04:36:50;101034.13;;;21.40;45.28
23619;BME280;18207;32.078;34.818;2024-01-27T04:39:22;101044.00;;;21.37;45.27
23619;BME280;18207;32.078;34.818;2024-01-27T04:41:52;101047.94;;;21.36;45.54
23619;BME280;18207;32.078;34.818;2024-01-27T04:44:21;101054.69;;;21.35;45.26
23619;BME280;18207;32.078;34.818;2024-01-27T04:46:51;101072.78;;;21.38;45.79
23619;BME280;18207;32.078;34.818;2024-01-27T04:49:21;101069.16;;;21.37;45.91
23619;BME280;18207;32.078;34.818;2024-01-27T04:51:50;101062.09;;;21.40;45.47
23619;BME280;18207;32.078;34.818;2024-01-27T04:54:22;101063.38;;;21.42;45.95
23619;BME280;18207;32.078;34.818;2024-01-27T04:56:53;101066.66;;;21.44;45.55
23619;BME280;18207;32.078;34.818;2024-01-27T04:59:22;101050.38;;;21.46;45.66
23619;BME280;18207;32.078;34.818;2024-01-27T05:01:53;101055.28;;;21.49;45.36
23619;BME280;18207;32.078;34.818;2024-01-27T05:04:22;101061.38;;;21.51;46.00
23619;BME280;18207;32.078;34.818;2024-01-27T05:06:54;101066.31;;;21.54;45.82
23619;BME280;18207;32.078;34.818;2024-01-27T05:09:26;101066.84;;;21.56;46.07
23619;BME280;18207;32.078;34.818;2024-01-27T05:11:56;101079.31;;;21.58;45.74
23619;BME280;18207;32.078;34.818;2024-01-27T05:14:26;101091.00;;;21.60;45.33
23619;BME280;18207;32.078;34.818;2024-01-27T05:16:56;101099.03;;;21.62;45.81
23619;BME280;18207;32.078;34.818;2024-01-27T05:19:26;101095.59;;;21.65;45.59
23619;BME280;18207;32.078;34.818;2024-01-27T05:21:55;101111.22;;;21.66;45.31
23619;BME280;18207;32.078;34.818;2024-01-27T05:24:27;101116.47;;;21.67;45.29
23619;BME280;18207;32.078;34.818;2024-01-27T05:26:56;101113.69;;;21.67;45.49
23619;BME280;18207;32.078;34.818;2024-01-27T05:29:27;101109.72;;;21.68;45.19
23619;BME280;18207;32.078;34.818;2024-01-27T05:31:57;101106.13;;;21.68;44.99
23619;BME280;18207;32.078;34.818;2024-01-27T05:34:27;101114.97;;;21.70;45.34
23619;BME280;18207;32.078;34.818;2024-01-27T05:36:57;101101.81;;;21.70;45.43
23619;BME280;18207;32.078;34.818;2024-01-27T05:39:28;101104.28;;;21.72;45.61
23619;BME280;18207;32.078;34.818;2024-01-27T05:42:00;101101.47;;;21.72;45.32
23619;BME280;18207;32.078;34.818;2024-01-27T05:44:30;101099.19;;;21.74;45.21
23619;BME280;18207;32.078;34.818;2024-01-27T05:47:00;101096.03;;;21.75;45.24
23619;BME280;18207;32.078;34.818;2024-01-27T05:49:30;101100.16;;;21.78;45.29
23619;BME280;18207;32.078;34.818;2024-01-27T05:52:00;101103.41;;;21.80;45.58
23619;BME280;18207;32.078;34.818;2024-01-27T05:54:31;101099.16;;;21.82;45.43
23619;BME280;18207;32.078;34.818;2024-01-27T05:57:01;101099.28;;;21.86;45.32
23619;BME280;18207;32.078;34.818;2024-01-27T05:59:31;101106.19;;;21.88;45.67
23619;BME280;18207;32.078;34.818;2024-01-27T06:02:01;101109.47;;;21.90;45.38
23619;BME280;18207;32.078;34.818;2024-01-27T06:04:30;101111.94;;;21.92;45.18
23619;BME280;18207;32.078;34.818;2024-01-27T06:07:01;101127.56;;;21.93;45.48
23619;BME280;18207;32.078;34.818;2024-01-27T06:09:33;101135.97;;;21.93;45.25
23619;BME280;18207;32.078;34.818;2024-01-27T06:12:06;101131.19;;;21.93;45.57
23619;BME280;18207;32.078;34.818;2024-01-27T06:14:36;101140.41;;;21.94;44.95
23619;BME280;18207;32.078;34.818;2024-01-27T06:17:06;101143.22;;;21.94;44.99
23619;BME280;18207;32.078;34.818;2024-01-27T06:19:35;101142.38;;;21.93;45.20
23619;BME280;18207;32.078;34.818;2024-01-27T06:22:05;101157.19;;;21.94;45.21
23619;BME280;18207;32.078;34.818;2024-01-27T06:24:42;101155.56;;;21.93;45.34
23619;BME280;18207;32.078;34.818;2024-01-27T06:27:12;101157.38;;;21.89;44.84
23619;BME280;18207;32.078;34.818;2024-01-27T06:29:42;101153.63;;;21.85;44.95
23619;BME280;18207;32.078;34.818;2024-01-27T06:32:12;101153.47;;;21.81;44.90
23619;BME280;18207;32.078;34.818;2024-01-27T06:34:42;101149.69;;;21.77;45.20
23619;BME280;18207;32.078;34.818;2024-01-27T06:37:11;101155.63;;;21.76;45.01
23619;BME280;18207;32.078;34.818;2024-01-27T06:39:42;101163.50;;;21.74;45.31
23619;BME280;18207;32.078;34.818;2024-01-27T06:42:12;101162.22;;;21.71;45.07
23619;BME280;18207;32.078;34.818;2024-01-27T06:44:42;101166.97;;;21.71;45.57
23619;BME280;18207;32.078;34.818;2024-01-27T06:47:11;101166.97;;;21.71;45.36
23619;BME280;18207;32.078;34.818;2024-01-27T06:49:41;101194.13;;;21.70;45.07
23619;BME280;18207;32.078;34.818;2024-01-27T06:52:11;101201.69;;;21.70;45.69
23619;BME280;18207;32.078;34.818;2024-01-27T06:54:42;101199.22;;;21.68;45.35
23619;BME280;18207;32.078;34.818;2024-01-27T06:57:19;101198.75;;;21.66;45.58
23619;BME280;18207;32.078;34.818;2024-01-27T06:59:51;101195.44;;;21.64;45.72
23619;BME280;18207;32.078;34.818;2024-01-27T07:02:23;101186.25;;;21.64;45.30
23619;BME280;18207;32.078;34.818;2024-01-27T07:04:55;101190.69;;;21.65;45.29
23619;BME280;18207;32.078;34.818;2024-01-27T07:07:27;101188.69;;;21.65;45.88
23619;BME280;18207;32.078;34.818;2024-01-27T07:09:59;101185.91;;;21.65;45.24
23619;BME280;18207;32.078;34.818;2024-01-27T07:12:28;101195.13;;;21.66;45.64
23619;BME280;18207;32.078;34.818;2024-01-27T07:14:58;101205.97;;;21.67;45.57
23619;BME280;18207;32.078;34.818;2024-01-27T07:17:28;101228.50;;;21.71;45.98
23619;BME280;18207;32.078;34.818;2024-01-27T07:19:58;101276.56;;;21.73;45.53
23619;BME280;18207;32.078;34.818;2024-01-27T07:22:29;101272.63;;;21.74;45.33
23619;BME280;18207;32.078;34.818;2024-01-27T07:25:00;101284.63;;;21.74;45.29
23619;BME280;18207;32.078;34.818;2024-01-27T07:27:29;101267.03;;;21.74;45.23
23619;BME280;18207;32.078;34.818;2024-01-27T07:29:59;101264.56;;;21.72;45.09
23619;BME280;18207;32.078;34.818;2024-01-27T07:32:30;101269.31;;;21.72;45.19
23619;BME280;18207;32.078;34.818;2024-01-27T07:35:01;101253.69;;;21.71;45.39
23619;BME280;18207;32.078;34.818;2024-01-27T07:37:31;101256.34;;;21.67;45.56
23619;BME280;18207;32.078;34.818;2024-01-27T07:40:03;101250.25;;;21.65;45.52
23619;BME280;18207;32.078;34.818;2024-01-27T07:42:42;101246.47;;;21.61;45.47
23619;BME280;18207;32.078;34.818;2024-01-27T07:45:11;101244.00;;;21.60;45.89
23619;BME280;18207;32.078;34.818;2024-01-27T07:47:41;101246.31;;;21.58;45.51
23619;BME280;18207;32.078;34.818;2024-01-27T07:50:11;101249.44;;;21.56;46.06
23619;BME280;18207;32.078;34.818;2024-01-27T07:52:42;101244.16;;;21.55;45.43
23619;BME280;18207;32.078;34.818;2024-01-27T07:55:14;101243.31;;;21.54;45.87
23619;BME280;18207;32.078;34.818;2024-01-27T07:57:45;101243.31;;;21.54;45.73
23619;BME280;18207;32.078;34.818;2024-01-27T08:00:15;101233.28;;;21.53;46.06
23619;BME280;18207;32.078;34.818;2024-01-27T08:02:45;101226.53;;;21.54;45.55
23619;BME280;18207;32.078;34.818;2024-01-27T08:05:15;101234.63;;;21.56;46.11
23619;BME280;18207;32.078;34.818;2024-01-27T08:07:49;101232.66;;;21.56;46.13
23619;BME280;18207;32.078;34.818;2024-01-27T08:10:20;101249.94;;;21.58;45.75
23619;BME280;18207;32.078;34.818;2024-01-27T08:12:50;101230.84;;;21.60;45.70
23619;BME280;18207;32.078;34.818;2024-01-27T08:15:20;101236.09;;;21.62;45.71
23619;BME280;18207;32.078;34.818;2024-01-27T08:17:50;101237.75;;;21.63;45.87
23619;BME280;18207;32.078;34.818;2024-01-27T08:20:20;101233.00;;;21.63;45.49
23619;BME280;18207;32.078;34.818;2024-01-27T08:22:49;101243.00;;;21.64;45.50
23619;BME280;18207;32.078;34.818;2024-01-27T08:25:21;101231.81;;;21.64;45.71
23619;BME280;18207;32.078;34.818;2024-01-27T08:27:51;101216.22;;;21.63;45.50
23619;BME280;18207;32.078;34.818;2024-01-27T08:30:21;101221.81;;;21.63;45.63
23619;BME280;18207;32.078;34.818;2024-01-27T08:32:50;101227.72;;;21.62;45.56
23619;BME280;18207;32.078;34.818;2024-01-27T08:35:21;101234.44;;;21.61;45.67
23619;BME280;18207;32.078;34.818;2024-01-27T08:37:50;101231.66;;;21.61;45.73
23619;BME280;18207;32.078;34.818;2024-01-27T08:40:22;101241.19;;;21.60;45.50
23619;BME280;18207;32.078;34.818;2024-01-27T08:42:51;101237.59;;;21.59;45.48
23619;BME280;18207;32.078;34.818;2024-01-27T08:45:21;101237.59;;;21.59;45.47
23619;BME280;18207;32.078;34.818;2024-01-27T08:48:06;101241.53;;;21.58;45.44
23619;BME280;18207;32.078;34.818;2024-01-27T08:50:38;101244.69;;;21.57;45.37
23619;BME280;18207;32.078;34.818;2024-01-27T08:53:07;101248.28;;;21.57;45.87
23619;BME280;18207;32.078;34.818;2024-01-27T08:55:39;101243.53;;;21.58;45.60
23619;BME280;18207;32.078;34.818;2024-01-27T08:58:09;101245.47;;;21.57;45.44
23619;BME280;18207;32.078;34.818;2024-01-27T09:00:39;101239.88;;;21.57;45.47
23619;BME280;18207;32.078;34.818;2024-01-27T09:03:09;101244.69;;;21.57;45.52
23619;BME280;18207;32.078;34.818;2024-01-27T09:05:40;101251.06;;;21.57;45.26
23619;BME280;18207;32.078;34.818;2024-01-27T09:08:12;101247.94;;;21.59;45.37
23619;BME280;18207;32.078;34.818;2024-01-27T09:10:43;101246.78;;;21.60;45.50
23619;BME280;18207;32.078;34.818;2024-01-27T09:13:13;101231.66;;;21.61;45.38
23619;BME280;18207;32.078;34.818;2024-01-27T09:15:43;101220.16;;;21.62;45.61
23619;BME280;18207;32.078;34.818;2024-01-27T09:18:13;101207.81;;;21.63;45.55
23619;BME280;18207;32.078;34.818;2024-01-27T09:20:43;101195.44;;;21.64;46.07
23619;BME280;18207;32.078;34.818;2024-01-27T09:23:13;101207.13;;;21.66;45.51
23619;BME280;18207;32.078;34.818;2024-01-27T09:25:44;101216.03;;;21.68;46.01
23619;BME280;18207;32.078;34.818;2024-01-27T09:28:14;101215.38;;;21.71;45.84
23619;BME280;18207;32.078;34.818;2024-01-27T09:30:44;101231.47;;;21.74;45.57
23619;BME280;18207;32.078;34.818;2024-01-27T09:33:23;101239.19;;;21.77;45.89
23619;BME280;18207;32.078;34.818;2024-01-27T09:35:53;101250.91;;;21.79;45.77
23619;BME280;18207;32.078;34.818;2024-01-27T09:38:22;101248.25;;;21.83;45.86
23619;BME280;18207;32.078;34.818;2024-01-27T09:40:54;101248.41;;;21.86;45.61
23619;BME280;18207;32.078;34.818;2024-01-27T09:43:28;101237.22;;;21.86;45.92
23619;BME280;18207;32.078;34.818;2024-01-27T09:45:58;101234.41;;;21.86;46.08
23619;BME280;18207;32.078;34.818;2024-01-27T09:48:29;101234.09;;;21.88;45.76
23619;BME280;18207;32.078;34.818;2024-01-27T09:51:01;101220.09;;;21.88;46.04
23619;BME280;18207;32.078;34.818;2024-01-27T09:53:33;101220.09;;;21.88;45.93
23619;BME280;18207;32.078;34.818;2024-01-27T09:56:07;101220.91;;;21.88;46.06
23619;BME280;18207;32.078;34.818;2024-01-27T09:58:38;101209.72;;;21.88;45.99
23619;BME280;18207;32.078;34.818;2024-01-27T10:01:11;101224.53;;;21.89;46.25
23619;BME280;18207;32.078;34.818;2024-01-27T10:03:41;101213.31;;;21.89;46.17
23619;BME280;18207;32.078;34.818;2024-01-27T10:06:11;101197.72;;;21.88;45.95
23619;BME280;18207;32.078;34.818;2024-01-27T10:08:51;101203.31;;;21.88;45.97
23619;BME280;18207;32.078;34.818;2024-01-27T10:11:27;101209.72;;;21.88;45.83
23619;BME280;18207;32.078;34.818;2024-01-27T10:13:58;101208.56;;;21.89;46.33
23619;BME280;18207;32.078;34.818;2024-01-27T10:16:40;101209.88;;;21.92;46.06
23619;BME280;18207;32.078;34.818;2024-01-27T10:19:15;101215.97;;;21.94;46.09
23619;BME280;18207;32.078;34.818;2024-01-27T10:21:47;101215.63;;;21.95;46.02
23619;BME280;18207;32.078;34.818;2024-01-27T10:24:19;101206.91;;;21.97;46.24
23619;BME280;18207;32.078;34.818;2024-01-27T10:26:50;101216.25;;;22.01;46.07
23619;BME280;18207;32.078;34.818;2024-01-27T10:29:20;101205.56;;;22.03;46.08
23619;BME280;18207;32.078;34.818;2024-01-27T10:31:50;101211.31;;;22.06;46.08
23619;BME280;18207;32.078;34.818;2024-01-27T10:34:31;101208.66;;;22.10;45.71
23619;BME280;18207;32.078;34.818;2024-01-27T10:37:01;101213.94;;;22.11;45.73
23619;BME280;18207;32.078;34.818;2024-01-27T10:39:37;101207.66;;;22.14;45.49
23619;BME280;18207;32.078;34.818;2024-01-27T10:42:11;101210.94;;;22.16;45.56
23619;BME280;18207;32.078;34.818;2024-01-27T10:44:43;101201.88;;;22.19;45.43
23619;BME280;18207;32.078;34.818;2024-01-27T10:47:17;101202.38;;;22.21;45.70
23619;BME280;18207;32.078;34.818;2024-01-27T10:49:52;101214.03;;;22.23;45.20
23619;BME280;18207;32.078;34.818;2024-01-27T10:52:25;101218.16;;;22.26;45.58
23619;BME280;18207;32.078;34.818;2024-01-27T10:55:01;101229.03;;;22.27;45.71
23619;BME280;18207;32.078;34.818;2024-01-27T10:57:38;101228.69;;;22.29;45.50
23619;BME280;18207;32.078;34.818;2024-01-27T11:00:24;101237.06;;;22.29;44.75
23619;BME280;18207;32.078;34.818;2024-01-27T11:02:58;101229.50;;;22.29;45.17
23619;BME280;18207;32.078;34.818;2024-01-27T11:05:29;101238.72;;;22.30;45.04
23619;BME280;18207;32.078;34.818;2024-01-27T11:08:00;101229.50;;;22.29;44.91
23619;BME280;18207;32.078;34.818;2024-01-27T11:10:30;101220.28;;;22.29;45.32
23619;BME280;18207;32.078;34.818;2024-01-27T11:13:05;101235.44;;;22.28;45.09
23619;BME280;18207;32.078;34.818;2024-01-27T11:15:36;101226.22;;;22.27;45.25
23619;BME280;18207;32.078;34.818;2024-01-27T11:18:06;101212.22;;;22.27;45.51
23619;BME280;18207;32.078;34.818;2024-01-27T11:20:36;101205.81;;;22.27;45.21
23619;BME280;18207;32.078;34.818;2024-01-27T11:23:10;101208.63;;;22.27;45.26
23619;BME280;18207;32.078;34.818;2024-01-27T11:25:40;101213.03;;;22.28;45.08
23619;BME280;18207;32.078;34.818;2024-01-27T11:28:16;101214.69;;;22.29;44.94
23619;BME280;18207;32.078;34.818;2024-01-27T11:30:48;101212.72;;;22.29;45.09
23619;BME280;18207;32.078;34.818;2024-01-27T11:33:18;101218.84;;;22.31;44.92
23619;BME280;18207;32.078;34.818;2024-01-27T11:35:48;101216.84;;;22.32;45.14
23619;BME280;18207;32.078;34.818;2024-01-27T11:38:25;101220.13;;;22.34;44.85
23619;BME280;18207;32.078;34.818;2024-01-27T11:40:54;101224.59;;;22.35;44.39
23619;BME280;18207;32.078;34.818;2024-01-27T11:43:26;101224.72;;;22.38;44.50
23619;BME280;18207;32.078;34.818;2024-01-27T11:45:57;101231.97;;;22.39;45.04
23619;BME280;18207;32.078;34.818;2024-01-27T11:48:27;101228.81;;;22.41;44.94
23619;BME280;18207;32.078;34.818;2024-01-27T11:51:11;101232.94;;;22.43;44.92
23619;BME280;18207;32.078;34.818;2024-01-27T11:53:41;101226.53;;;22.42;44.68
23619;BME280;18207;32.078;34.818;2024-01-27T11:56:14;101226.16;;;22.44;44.35
23619;BME280;18207;32.078;34.818;2024-01-27T11:58:50;101227.81;;;22.45;44.64
23619;BME280;18207;32.078;34.818;2024-01-27T12:01:19;101241.50;;;22.46;44.43
23619;BME280;18207;32.078;34.818;2024-01-27T12:03:50;101239.50;;;22.47;43.89
23619;BME280;18207;32.078;34.818;2024-01-27T12:06:20;101240.81;;;22.49;44.25
23619;BME280;18207;32.078;34.818;2024-01-27T12:08:55;101246.09;;;22.51;44.32
23619;BME280;18207;32.078;34.818;2024-01-27T12:11:25;101250.19;;;22.53;44.23
23619;BME280;18207;32.078;34.818;2024-01-27T12:13:57;101249.03;;;22.54;44.21
23619;BME280;18207;32.078;34.818;2024-01-27T12:16:28;101247.88;;;22.55;44.14
23619;BME280;18207;32.078;34.818;2024-01-27T12:18:59;101259.56;;;22.57;43.97
23619;BME280;18207;32.078;34.818;2024-01-27T12:21:29;101261.19;;;22.58;44.09
23619;BME280;18207;32.078;34.818;2024-01-27T12:23:59;101264.84;;;22.59;43.99
23619;BME280;18207;32.078;34.818;2024-01-27T12:26:30;101269.28;;;22.60;43.72
23619;BME280;18207;32.078;34.818;2024-01-27T12:29:02;101271.75;;;22.61;44.02
23619;BME280;18207;32.078;34.818;2024-01-27T12:31:32;101266.94;;;22.62;44.11
23619;BME280;18207;32.078;34.818;2024-01-27T12:34:02;101277.00;;;22.63;44.07
23619;BME280;18207;32.078;34.818;2024-01-27T12:36:32;101276.69;;;22.64;44.37
23619;BME280;18207;32.078;34.818;2024-01-27T12:39:03;101274.19;;;22.63;44.33
23619;BME280;18207;32.078;34.818;2024-01-27T12:41:33;101278.66;;;22.64;44.08
23619;BME280;18207;32.078;34.818;2024-01-27T12:44:06;101275.53;;;22.65;44.03
23619;BME280;18207;32.078;34.818;2024-01-27T12:46:36;101282.59;;;22.63;43.66
23619;BME280;18207;32.078;34.818;2024-01-27T12:49:06;101288.69;;;22.65;43.88
23619;BME280;18207;32.078;34.818;2024-01-27T12:51:37;101288.69;;;22.65;43.87
23619;BME280;18207;32.078;34.818;2024-01-27T12:54:09;101290.69;;;22.64;43.63
23619;BME280;18207;32.078;34.818;2024-01-27T12:56:39;101289.53;;;22.65;43.37
23619;BME280;18207;32.078;34.818;2024-01-27T12:59:11;101288.34;;;22.66;43.95